Time;durP1;ratioP1;P1;durP2;ratioP2;P2;SDS_P1;SDS_P2;PMS_P1;PMS_P2;Temp;Humidity;BMP_temperature;BMP_pressure;BME280_temperature;BME280_humidity;BME280_pressure;Samples;Min_cycle;Max_cycle;Signal;HPM_P1;HPM_P2
2022/06/12 00:00:00;;;;;;;;;;;;;;;15.74;100.00;98966.69;5032112;28;830;-66
2022/06/12 00:02:26;;;;;;;;;;;;;;;15.75;100.00;98965.47;5032053;28;829;-65
2022/06/12 00:04:53;;;;;;;;;;;;;;;15.78;100.00;98961.75;5032001;28;838;-65
2022/06/12 00:07:20;;;;;;;;;;;;;;;15.86;100.00;98958.22;5032082;28;914;-65
2022/06/12 00:09:47;;;;;;;;;;;;;;;15.91;100.00;98940.88;5031922;28;865;-66
2022/06/12 00:12:14;;;;;;;;;;;;;;;15.96;100.00;98941.53;5031978;28;870;-64
2022/06/12 00:14:41;;;;;;;;;;;;;;;16.03;100.00;98944.03;5014069;28;1156;-68
2022/06/12 00:17:08;;;;;;;;;;;;;;;16.03;100.00;98946.81;5031908;28;1941;-64
2022/06/12 00:19:35;;;;;;;;;;;;;;;16.09;100.00;98947.78;5014142;28;1176;-66
2022/06/12 00:22:02;;;;;;;;;;;;;;;16.11;100.00;98942.50;5032117;28;807;-69
2022/06/12 00:24:29;;;;;;;;;;;;;;;16.14;100.00;98944.38;5031747;28;838;-65
2022/06/12 00:26:57;;;;;;;;;;;;;;;16.18;100.00;98930.28;5031706;28;799;-67
2022/06/12 00:29:27;;;;;;;;;;;;;;;16.23;100.00;98935.25;5032034;28;911;-65
2022/06/12 00:31:56;;;;;;;;;;;;;;;16.25;100.00;98929.97;5031791;28;890;-63
2022/06/12 00:34:26;;;;;;;;;;;;;;;16.27;100.00;98924.72;5031949;28;810;-66
2022/06/12 00:36:53;;;;;;;;;;;;;;;16.33;100.00;98923.63;5031592;28;1881;-64
2022/06/12 00:39:20;;;;;;;;;;;;;;;16.35;100.00;98923.19;5031347;28;1310;-63
2022/06/12 00:41:49;;;;;;;;;;;;;;;16.40;100.00;98930.16;5031558;28;827;-67
2022/06/12 00:44:17;;;;;;;;;;;;;;;16.44;100.00;98922.41;5031478;28;917;-64
2022/06/12 00:46:54;;;;;;;;;;;;;;;16.47;100.00;98935.41;5031429;28;917;-64
2022/06/12 00:49:24;;;;;;;;;;;;;;;16.51;100.00;98927.69;5031509;28;858;-65
2022/06/12 00:51:54;;;;;;;;;;;;;;;16.53;100.00;98934.34;5031417;28;866;-66
2022/06/12 00:54:21;;;;;;;;;;;;;;;16.57;100.00;98939.00;5031619;28;807;-63
2022/06/12 00:56:49;;;;;;;;;;;;;;;16.59;100.00;98942.09;5031652;28;1910;-65
2022/06/12 00:59:19;;;;;;;;;;;;;;;16.63;100.00;98931.56;5035507;28;799;-63
2022/06/12 01:01:50;;;;;;;;;;;;;;;16.67;100.00;98934.97;5035444;28;838;-64
2022/06/12 01:07:05;;;;;;;;;;;;;;;16.69;100.00;98941.63;5035760;28;645;-66
2022/06/12 01:09:36;;;;;;;;;;;;;;;16.73;100.00;98944.28;5035329;28;858;-65
2022/06/12 01:12:04;;;;;;;;;;;;;;;16.74;100.00;98954.19;5035273;28;921;-64
2022/06/12 01:14:35;;;;;;;;;;;;;;;16.77;100.00;98960.84;5035116;28;869;-65
2022/06/12 01:17:03;;;;;;;;;;;;;;;16.82;100.00;98961.03;5035108;28;1886;-65
2022/06/12 01:19:34;;;;;;;;;;;;;;;16.84;100.00;98961.34;5035126;28;1057;-66
2022/06/12 01:22:19;;;;;;;;;;;;;;;16.86;100.00;98961.66;5035144;28;846;-65
2022/06/12 01:24:59;;;;;;;;;;;;;;;16.87;100.00;98959.63;5035752;28;787;-64
2022/06/12 01:27:40;;;;;;;;;;;;;;;16.86;100.00;98963.69;5034988;28;794;-65
2022/06/12 01:30:10;;;;;;;;;;;;;;;16.85;100.00;98965.66;5035392;28;941;-65
2022/06/12 01:32:52;;;;;;;;;;;;;;;16.84;100.00;98969.72;5034929;28;826;-65
2022/06/12 01:35:38;;;;;;;;;;;;;;;16.84;100.00;98963.38;5035061;28;815;-63
2022/06/12 01:38:17;;;;;;;;;;;;;;;16.86;100.00;98956.06;5034892;28;1913;-65
2022/06/12 01:40:59;;;;;;;;;;;;;;;16.90;100.00;98965.06;5034786;28;901;-66
2022/06/12 01:43:33;;;;;;;;;;;;;;;16.89;100.00;98963.50;5034916;28;834;-64
2022/06/12 01:46:00;;;;;;;;;;;;;;;16.89;100.00;98965.53;5034940;28;795;-66
2022/06/12 01:48:47;;;;;;;;;;;;;;;16.87;100.00;98960.41;5034616;28;822;-62
2022/06/12 01:51:26;;;;;;;;;;;;;;;16.90;100.00;98962.28;5033438;28;1291;-67
2022/06/12 01:53:53;;;;;;;;;;;;;;;16.90;100.00;98964.31;5034601;28;810;-66
2022/06/12 01:56:22;;;;;;;;;;;;;;;16.92;100.00;98953.44;5034460;28;1981;-65
2022/06/12 01:58:56;;;;;;;;;;;;;;;16.92;100.00;98962.59;5034651;28;885;-64
2022/06/12 02:01:31;;;;;;;;;;;;;;;16.97;100.00;98961.19;5034358;28;862;-67
2022/06/12 02:03:57;;;;;;;;;;;;;;;16.99;100.00;98960.72;5034308;28;1279;-67
2022/06/12 02:06:28;;;;;;;;;;;;;;;16.99;100.00;98967.06;5034329;28;808;-67
2022/06/12 02:09:00;;;;;;;;;;;;;;;17.02;100.00;98959.78;5033271;28;870;-66
2022/06/12 02:14:16;;;;;;;;;;;;;;;17.09;100.00;98979.00;5034058;28;668;-67
2022/06/12 02:16:47;;;;;;;;;;;;;;;17.09;100.00;98985.38;5033958;28;1976;-67
2022/06/12 02:19:18;;;;;;;;;;;;;;;17.02;100.00;98984.91;5034026;28;906;-66
2022/06/12 02:21:57;;;;;;;;;;;;;;;16.92;100.00;98976.53;5033939;28;843;-65
2022/06/12 02:24:31;;;;;;;;;;;;;;;16.88;100.00;98978.72;5033979;28;858;-64
2022/06/12 02:27:06;;;;;;;;;;;;;;;16.89;100.00;98982.28;5033841;28;834;-65
2022/06/12 02:29:35;;;;;;;;;;;;;;;16.88;100.00;98992.66;5034296;28;1007;-66
2022/06/12 02:32:05;;;;;;;;;;;;;;;16.88;100.00;98984.28;5033829;28;826;-65
2022/06/12 02:34:34;;;;;;;;;;;;;;;16.88;100.00;98980.72;5033765;28;811;-65
2022/06/12 02:37:05;;;;;;;;;;;;;;;16.90;100.00;98987.41;5033857;28;1949;-65
2022/06/12 02:39:39;;;;;;;;;;;;;;;16.92;100.00;98981.34;5033605;28;1231;-65
2022/06/12 02:42:15;;;;;;;;;;;;;;;16.97;100.00;98980.72;5033623;28;807;-64
2022/06/12 02:44:51;;;;;;;;;;;;;;;16.98;100.00;98987.84;5033590;28;819;-64
2022/06/12 02:47:21;;;;;;;;;;;;;;;17.01;100.00;98980.56;5033687;28;941;-64
2022/06/12 02:49:50;;;;;;;;;;;;;;;17.04;100.00;98985.97;5033450;28;827;-64
2022/06/12 02:52:16;;;;;;;;;;;;;;;17.06;100.00;98988.31;5016165;28;839;-64
2022/06/12 02:54:58;;;;;;;;;;;;;;;17.08;100.00;98994.19;5033404;28;847;-64
2022/06/12 02:57:25;;;;;;;;;;;;;;;17.10;100.00;98983.34;5033251;28;1918;-63
2022/06/12 02:59:51;;;;;;;;;;;;;;;17.11;100.00;98993.25;5015546;28;1386;-64
2022/06/12 03:02:23;;;;;;;;;;;;;;;17.08;100.00;98981.00;5033200;28;791;-65
2022/06/12 03:04:59;;;;;;;;;;;;;;;17.02;100.00;98990.47;5033212;28;826;-66
2022/06/12 03:07:28;;;;;;;;;;;;;;;16.90;100.00;98990.19;5033165;28;790;-64
2022/06/12 03:09:56;;;;;;;;;;;;;;;16.81;100.00;98992.97;5033111;28;891;-64
2022/06/12 03:12:24;;;;;;;;;;;;;;;16.75;100.00;98994.81;5032903;28;885;-63
2022/06/12 03:14:52;;;;;;;;;;;;;;;16.69;100.00;98989.06;5032925;28;815;-65
2022/06/12 03:17:19;;;;;;;;;;;;;;;16.67;100.00;98988.75;5032913;28;1963;-67
2022/06/12 03:19:51;;;;;;;;;;;;;;;16.67;100.00;98987.97;5014973;28;1166;-63
2022/06/12 03:22:34;;;;;;;;;;;;;;;16.67;100.00;98983.16;5032856;28;838;-64
2022/06/12 03:25:01;;;;;;;;;;;;;;;16.66;100.00;98992.78;5032834;28;779;-63
2022/06/12 03:27:46;;;;;;;;;;;;;;;16.67;100.00;98994.34;5032841;28;791;-67
2022/06/12 03:30:42;;;;;;;;;;;;;;;16.66;100.00;98992.00;5032730;28;846;-63
2022/06/12 03:33:12;;;;;;;;;;;;;;;16.64;100.00;98986.91;5015633;28;1270;-64
2022/06/12 03:35:39;;;;;;;;;;;;;;;16.63;100.00;98982.53;5032567;28;827;-64
2022/06/12 03:38:26;;;;;;;;;;;;;;;16.63;100.00;98988.13;5032262;28;1941;-64
2022/06/12 03:41:08;;;;;;;;;;;;;;;16.63;100.00;98976.97;5018535;28;1098;-71
2022/06/12 03:43:41;;;;;;;;;;;;;;;16.63;100.00;98981.78;5032352;28;807;-66
2022/06/12 03:46:10;;;;;;;;;;;;;;;16.62;100.00;98981.00;5032422;28;870;-71
2022/06/12 03:48:55;;;;;;;;;;;;;;;16.63;100.00;98984.56;5014941;28;1194;-70
2022/06/12 03:51:32;;;;;;;;;;;;;;;16.59;100.00;98983.94;5032374;28;851;-70
2022/06/12 03:54:00;;;;;;;;;;;;;;;16.58;100.00;98979.59;5032255;28;874;-68
2022/06/12 03:59:42;;;;;;;;;;;;;;;16.55;100.00;98984.09;5032176;28;625;-66
2022/06/12 04:02:13;;;;;;;;;;;;;;;16.54;100.00;98979.75;5032090;28;885;-74
2022/06/12 04:04:41;;;;;;;;;;;;;;;16.51;100.00;98975.88;5032139;28;972;-67
2022/06/12 04:07:13;;;;;;;;;;;;;;;16.51;100.00;98970.31;5032056;28;807;-66
2022/06/12 04:09:43;;;;;;;;;;;;;;;16.52;100.00;98979.44;5031943;28;841;-66
2022/06/12 04:12:15;;;;;;;;;;;;;;;16.52;100.00;98980.22;5014166;28;1152;-67
2022/06/12 04:14:44;;;;;;;;;;;;;;;16.52;100.00;98980.22;5031968;28;847;-66
2022/06/12 04:17:11;;;;;;;;;;;;;;;16.53;100.00;98986.56;5031826;28;1948;-65
2022/06/12 04:20:03;;;;;;;;;;;;;;;16.52;100.00;98985.03;5031897;28;815;-69
2022/06/12 04:22:38;;;;;;;;;;;;;;;16.52;100.00;98987.81;5030574;28;1120;-66
2022/06/12 04:25:14;;;;;;;;;;;;;;;16.53;100.00;98981.75;5031773;28;787;-65
2022/06/12 04:27:41;;;;;;;;;;;;;;;16.53;100.00;98981.75;5031769;28;795;-66
2022/06/12 04:30:35;;;;;;;;;;;;;;;16.51;100.00;98998.19;5032127;28;1050;-65
2022/06/12 04:33:20;;;;;;;;;;;;;;;16.52;100.00;98996.94;5028486;28;1250;-66
2022/06/12 04:35:51;;;;;;;;;;;;;;;16.52;100.00;98998.97;5031691;28;787;-65
2022/06/12 04:38:18;;;;;;;;;;;;;;;16.54;100.00;98999.28;5031196;28;1882;-65
2022/06/12 04:40:44;;;;;;;;;;;;;;;16.56;100.00;99016.34;5031499;28;838;-66
2022/06/12 04:43:11;;;;;;;;;;;;;;;16.58;100.00;99013.06;5031512;28;823;-65
2022/06/12 04:45:38;;;;;;;;;;;;;;;16.60;100.00;99014.16;5031520;28;858;-65
2022/06/12 04:48:05;;;;;;;;;;;;;;;16.63;100.00;99013.22;5031484;28;799;-64
2022/06/12 04:50:32;;;;;;;;;;;;;;;16.67;100.00;99024.25;5031462;28;819;-66
2022/06/12 04:52:59;;;;;;;;;;;;;;;16.70;100.00;99012.16;5031502;28;909;-66
2022/06/12 04:55:26;;;;;;;;;;;;;;;16.74;100.00;99029.53;5013635;28;1176;-68
2022/06/12 04:57:53;;;;;;;;;;;;;;;16.77;100.00;99023.03;5031370;28;1910;-64
2022/06/12 05:00:20;;;;;;;;;;;;;;;16.83;100.00;99026.00;5031394;28;874;-64
2022/06/12 05:02:46;;;;;;;;;;;;;;;16.87;100.00;99021.81;5031372;28;803;-65
2022/06/12 05:05:13;;;;;;;;;;;;;;;16.90;100.00;99037.63;5013560;28;1234;-65
2022/06/12 05:07:40;;;;;;;;;;;;;;;16.94;100.00;99024.31;5031431;28;835;-66
2022/06/12 05:10:07;;;;;;;;;;;;;;;16.94;100.00;99027.09;5031225;28;814;-66
2022/06/12 05:12:33;;;;;;;;;;;;;;;16.94;100.00;99020.72;5013959;28;1378;-68
2022/06/12 05:15:00;;;;;;;;;;;;;;;16.94;100.00;99027.09;5031460;28;889;-63
2022/06/12 05:17:27;;;;;;;;;;;;;;;16.99;100.00;99022.91;5031107;28;1878;-67
2022/06/12 05:19:54;;;;;;;;;;;;;;;17.02;100.00;99015.59;5031217;28;940;-67
2022/06/12 05:22:22;;;;;;;;;;;;;;;17.09;100.00;99018.88;5013473;28;1089;-66
2022/06/12 05:24:49;;;;;;;;;;;;;;;17.16;100.00;99031.75;5031145;28;878;-64
2022/06/12 05:27:20;;;;;;;;;;;;;;;17.23;100.00;99031.41;5031267;28;815;-64
2022/06/12 05:29:47;;;;;;;;;;;;;;;17.29;100.00;99032.34;5031818;28;907;-63
2022/06/12 05:32:16;;;;;;;;;;;;;;;17.42;100.00;99034.19;5031329;28;823;-65
2022/06/12 05:34:42;;;;;;;;;;;;;;;17.64;100.00;99029.16;5031229;28;803;-67
2022/06/12 05:40:16;;;;;;;;;;;;;;;17.97;100.00;99019.31;5010697;28;1750;-66
2022/06/12 05:42:43;;;;;;;;;;;;;;;18.06;100.00;99014.44;5031725;28;810;-69
2022/06/12 05:45:13;;;;;;;;;;;;;;;18.12;100.00;99017.38;5033504;28;839;-66
2022/06/12 05:47:44;;;;;;;;;;;;;;;18.06;100.00;99024.88;5016953;28;1614;-72
2022/06/12 05:50:11;;;;;;;;;;;;;;;18.07;100.00;99030.00;5034847;28;866;-70
2022/06/12 05:52:42;;;;;;;;;;;;;;;18.06;100.00;99025.63;5016765;28;882;-65
2022/06/12 05:55:09;;;;;;;;;;;;;;;18.07;100.00;99027.19;5034424;28;878;-70
2022/06/12 05:57:34;;;;;;;;;;;;;;;18.02;100.00;99027.81;5016641;28;1985;-71
2022/06/12 06:03:08;;;;;;;;;;;;;;;17.85;100.00;99037.84;5034376;28;681;-67
2022/06/12 06:05:38;;;;;;;;;;;;;;;17.82;100.00;99024.78;5033829;28;1107;-69
2022/06/12 06:08:06;;;;;;;;;;;;;;;17.85;100.00;99012.69;5034482;28;850;-67
2022/06/12 06:10:32;;;;;;;;;;;;;;;17.98;100.00;99020.84;5034195;28;978;-62
2022/06/12 06:12:59;;;;;;;;;;;;;;;18.07;100.00;99018.00;5034148;28;846;-66
2022/06/12 06:15:26;;;;;;;;;;;;;;;18.10;100.00;99011.50;5034169;28;815;-65
2022/06/12 06:17:52;;;;;;;;;;;;;;;18.13;100.00;99013.31;5034027;28;1911;-62
2022/06/12 06:23:21;;;;;;;;;;;;;;;18.04;100.00;99011.34;5034056;28;605;-62
2022/06/12 06:25:47;;;;;;;;;;;;;;;18.07;100.00;99020.81;5034088;28;914;-62
2022/06/12 06:28:14;;;;;;;;;;;;;;;18.01;100.00;99019.91;5034203;28;902;-63
2022/06/12 06:30:41;;;;;;;;;;;;;;;17.98;100.00;99032.03;5034146;28;858;-64
2022/06/12 06:33:08;;;;;;;;;;;;;;;18.01;100.00;99017.09;5016226;28;1224;-64
2022/06/12 06:35:36;;;;;;;;;;;;;;;18.06;100.00;99028.44;5034018;28;858;-65
2022/06/12 06:38:03;;;;;;;;;;;;;;;18.16;100.00;99029.19;5033893;28;1955;-64
2022/06/12 06:40:31;;;;;;;;;;;;;;;18.24;100.00;99035.19;5033572;28;1226;-64
2022/06/12 06:42:58;;;;;;;;;;;;;;;18.29;100.00;99040.91;5033658;28;890;-64
2022/06/12 06:48:11;;;;;;;;;;;;;;;18.27;100.00;99051.81;5033582;28;736;-67
2022/06/12 06:50:39;;;;;;;;;;;;;;;18.28;100.00;99050.53;5033634;28;1061;-66
2022/06/12 06:53:07;;;;;;;;;;;;;;;18.32;100.00;99048.34;5033620;28;816;-64
2022/06/12 06:55:34;;;;;;;;;;;;;;;18.43;100.00;99059.00;5032866;28;847;-66
2022/06/12 06:58:01;;;;;;;;;;;;;;;18.54;100.00;99055.69;5033295;28;1910;-64
2022/06/12 07:00:31;;;;;;;;;;;;;;;18.62;100.00;99036.53;5033364;28;862;-60
2022/06/12 07:02:57;;;;;;;;;;;;;;;18.73;100.00;99036.75;5033274;28;830;-64
2022/06/12 07:05:24;;;;;;;;;;;;;;;18.96;100.00;99038.03;5033515;28;795;-65
2022/06/12 07:07:51;;;;;;;;;;;;;;;19.18;100.00;99041.28;5033040;28;854;-64
2022/06/12 07:10:20;;;;;;;;;;;;;;;19.46;100.00;99040.22;5033163;28;843;-65
2022/06/12 07:12:49;;;;;;;;;;;;;;;19.71;99.41;99030.50;5033071;28;831;-64
2022/06/12 07:15:15;;;;;;;;;;;;;;;19.88;97.92;99048.38;5033018;28;858;-65
2022/06/12 07:17:43;;;;;;;;;;;;;;;20.14;96.55;99039.34;5032861;28;1890;-64
2022/06/12 07:20:10;;;;;;;;;;;;;;;20.50;95.17;99043.69;5033293;28;815;-65
2022/06/12 07:22:37;;;;;;;;;;;;;;;20.77;94.85;99030.53;5032823;28;857;-65
2022/06/12 07:25:04;;;;;;;;;;;;;;;20.83;92.56;99014.53;5015118;28;1366;-64
2022/06/12 07:27:31;;;;;;;;;;;;;;;20.93;91.82;99023.56;5032806;28;1018;-65
2022/06/12 07:29:58;;;;;;;;;;;;;;;20.86;90.33;99021.97;5033120;28;873;-66
2022/06/12 07:32:25;;;;;;;;;;;;;;;20.75;89.09;99013.41;5032689;28;865;-66
2022/06/12 07:34:53;;;;;;;;;;;;;;;20.66;89.21;99030.41;5032989;28;819;-68
2022/06/12 07:37:21;;;;;;;;;;;;;;;20.54;89.52;99035.06;5032374;28;1894;-67
2022/06/12 07:39:48;;;;;;;;;;;;;;;20.63;89.82;99020.91;5032565;28;835;-66
2022/06/12 07:42:16;;;;;;;;;;;;;;;20.64;89.04;99044.94;5032363;28;1260;-68
2022/06/12 07:44:42;;;;;;;;;;;;;;;20.52;89.53;99032.75;5032398;28;861;-63
2022/06/12 07:47:09;;;;;;;;;;;;;;;20.43;89.45;99043.34;5032480;28;870;-65
2022/06/12 07:49:35;;;;;;;;;;;;;;;20.15;90.55;99036.06;5032276;28;898;-61
2022/06/12 07:52:05;;;;;;;;;;;;;;;20.06;92.11;99043.81;5032426;28;906;-60
2022/06/12 07:54:33;;;;;;;;;;;;;;;20.01;93.53;99052.91;5032277;28;834;-61
2022/06/12 07:57:00;;;;;;;;;;;;;;;19.77;94.26;99037.75;5032113;28;1906;-62
2022/06/12 07:59:27;;;;;;;;;;;;;;;19.38;95.99;99037.81;5032194;28;795;-63
2022/06/12 08:01:54;;;;;;;;;;;;;;;19.33;97.93;99049.69;5032075;28;946;-60
2022/06/12 08:04:21;;;;;;;;;;;;;;;19.32;98.49;99048.13;5032058;28;857;-60
2022/06/12 08:06:48;;;;;;;;;;;;;;;19.30;98.83;99059.06;5031267;28;830;-62
2022/06/12 08:09:16;;;;;;;;;;;;;;;19.39;98.91;99052.59;5031947;28;866;-60
2022/06/12 08:11:45;;;;;;;;;;;;;;;19.53;98.17;99051.06;5031979;28;901;-61
2022/06/12 08:14:12;;;;;;;;;;;;;;;19.66;96.06;99053.59;5031893;28;816;-61
2022/06/12 08:16:40;;;;;;;;;;;;;;;19.63;95.67;99058.13;5031857;28;1949;-62
2022/06/12 08:20:24;;;;;;;;;;;;;;;19.72;94.67;99046.84;5031882;28;822;-61
2022/06/12 08:21:56;;;;;;;;;;;;;;;19.93;94.66;99049.75;5031569;28;802;-61
2022/06/12 08:24:24;;;;;;;;;;;;;;;20.06;93.92;99050.19;5031838;28;819;-60
2022/06/12 08:26:50;;;;;;;;;;;;;;;20.17;93.82;99046.78;5031928;28;822;-60
2022/06/12 08:29:17;;;;;;;;;;;;;;;20.34;94.38;99047.81;5031993;28;988;-60
2022/06/12 08:31:47;;;;;;;;;;;;;;;20.40;93.85;99047.91;5031627;28;906;-61
2022/06/12 08:34:16;;;;;;;;;;;;;;;20.44;93.48;99047.69;5031910;28;850;-60
2022/06/12 08:36:43;;;;;;;;;;;;;;;20.41;92.45;99046.63;5031625;28;1894;-60
2022/06/12 08:39:10;;;;;;;;;;;;;;;20.40;92.74;99045.09;5031579;28;846;-61
2022/06/12 08:42:06;;;;;;;;;;;;;;;20.36;92.31;99050.91;5031374;28;1431;-61
2022/06/12 08:44:47;;;;;;;;;;;;;;;20.33;91.68;99059.50;5014596;28;1044;-62
2022/06/12 08:47:33;;;;;;;;;;;;;;;20.36;92.28;99064.94;5031589;28;827;-61
2022/06/12 08:50:13;;;;;;;;;;;;;;;20.33;91.34;99068.72;5031669;28;855;-62
2022/06/12 08:52:50;;;;;;;;;;;;;;;20.43;91.78;99065.78;5031464;28;1097;-60
2022/06/12 08:55:23;;;;;;;;;;;;;;;20.44;90.15;99068.13;5031462;28;827;-60
2022/06/12 08:57:50;;;;;;;;;;;;;;;20.58;91.02;99072.91;5031412;28;1973;-61
2022/06/12 09:00:19;;;;;;;;;;;;;;;20.67;90.38;99074.06;5031432;28;799;-60
2022/06/12 09:02:47;;;;;;;;;;;;;;;20.78;89.96;99080.59;5031329;28;842;-61
2022/06/12 09:05:17;;;;;;;;;;;;;;;20.91;90.00;99094.31;5031440;28;799;-62
2022/06/12 09:07:48;;;;;;;;;;;;;;;21.03;89.48;99089.59;5031183;28;854;-60
2022/06/12 09:10:21;;;;;;;;;;;;;;;21.04;88.53;99091.16;5031326;28;850;-61
2022/06/12 09:12:52;;;;;;;;;;;;;;;20.96;87.85;99087.22;5031345;28;814;-61
2022/06/12 09:15:38;;;;;;;;;;;;;;;20.92;87.77;99093.03;5031174;28;914;-62
2022/06/12 09:18:23;;;;;;;;;;;;;;;20.93;88.64;99103.00;5031697;28;1890;-62
2022/06/12 09:20:58;;;;;;;;;;;;;;;20.79;90.24;99098.22;5035084;28;945;-61
2022/06/12 09:23:43;;;;;;;;;;;;;;;20.77;91.37;99101.50;5035188;28;909;-60
2022/06/12 09:26:10;;;;;;;;;;;;;;;20.94;91.88;99112.97;5035143;28;910;-60
2022/06/12 09:28:55;;;;;;;;;;;;;;;21.27;90.81;99106.22;5035038;28;1019;-61
2022/06/12 09:31:28;;;;;;;;;;;;;;;21.58;88.13;99104.81;5034998;28;858;-60
2022/06/12 09:34:04;;;;;;;;;;;;;;;21.82;87.81;99105.28;5034948;28;893;-60
2022/06/12 09:36:44;;;;;;;;;;;;;;;22.21;87.84;99099.25;5035031;28;1886;-61
2022/06/12 09:39:11;;;;;;;;;;;;;;;22.44;85.11;99105.06;5034788;28;799;-63
2022/06/12 09:41:53;;;;;;;;;;;;;;;22.26;84.16;99111.06;5034670;28;1273;-61
2022/06/12 09:44:27;;;;;;;;;;;;;;;22.18;85.63;99105.84;5034690;28;787;-60
2022/06/12 09:47:12;;;;;;;;;;;;;;;22.33;86.79;99113.44;5034677;28;810;-61
2022/06/12 09:49:42;;;;;;;;;;;;;;;22.26;85.97;99111.84;5034611;28;838;-61
2022/06/12 09:52:11;;;;;;;;;;;;;;;22.15;86.19;99111.72;5034574;28;831;-62
2022/06/12 09:54:46;;;;;;;;;;;;;;;21.81;85.50;99125.50;5034499;28;838;-60
2022/06/12 09:57:31;;;;;;;;;;;;;;;21.61;87.61;99112.25;5034385;28;1902;-60
2022/06/12 10:00:01;;;;;;;;;;;;;;;21.53;88.10;99108.31;5034752;28;858;-60
2022/06/12 10:28:43;;;;;;;;;;;;;;;20.90;91.49;99086.38;6016998;22;1514;-60
2022/06/12 10:31:10;;;;;;;;;;;;;;;20.77;91.97;99095.13;4993864;28;846;-59
2022/06/12 10:33:41;;;;;;;;;;;;;;;20.89;92.34;99096.84;4994661;28;877;-59
2022/06/12 10:36:28;;;;;;;;;;;;;;;21.01;92.27;99092.88;4994530;28;849;-60
2022/06/12 10:39:07;;;;;;;;;;;;;;;21.19;92.47;99091.06;4994323;28;1247;-59
2022/06/12 10:41:41;;;;;;;;;;;;;;;21.25;91.88;99094.72;4994483;28;857;-59
2022/06/12 10:44:25;;;;;;;;;;;;;;;21.37;92.21;99095.59;4994396;28;858;-59
2022/06/12 10:46:52;;;;;;;;;;;;;;;21.65;92.58;99087.50;4994683;28;846;-59
2022/06/12 10:49:23;;;;;;;;;;;;;;;21.80;91.72;99082.50;4993241;28;835;-59
2022/06/12 10:51:51;;;;;;;;;;;;;;;21.85;90.39;99075.41;4994169;28;910;-59
2022/06/12 10:54:19;;;;;;;;;;;;;;;21.88;89.68;99071.59;4994126;28;865;-59
2022/06/12 10:57:04;;;;;;;;;;;;;;;21.84;89.04;99071.03;4994084;28;1922;-59
2022/06/12 10:59:52;;;;;;;;;;;;;;;21.90;88.89;99074.69;4993874;28;820;-61
2022/06/12 11:02:38;;;;;;;;;;;;;;;22.11;88.37;99068.97;4994190;28;870;-60
2022/06/12 11:05:24;;;;;;;;;;;;;;;22.33;87.49;99082.47;4994373;28;882;-61
2022/06/12 11:07:50;;;;;;;;;;;;;;;22.38;86.96;99067.63;4993894;28;858;-59
2022/06/12 11:10:40;;;;;;;;;;;;;;;22.52;86.92;99066.72;4992563;28;839;-59
2022/06/12 11:13:19;;;;;;;;;;;;;;;22.60;86.46;99073.41;4966140;28;1333;-59
2022/06/12 11:16:04;;;;;;;;;;;;;;;22.61;86.21;99060.88;4993749;28;841;-60
2022/06/12 11:18:31;;;;;;;;;;;;;;;22.72;85.76;99062.22;4993597;28;1944;-60
2022/06/12 11:21:12;;;;;;;;;;;;;;;22.78;85.58;99072.22;4993701;28;806;-59
2022/06/12 11:23:41;;;;;;;;;;;;;;;23.09;86.12;99069.84;4993909;28;842;-61
2022/06/12 11:26:20;;;;;;;;;;;;;;;23.19;84.91;99065.50;4993562;28;853;-59
2022/06/12 11:28:47;;;;;;;;;;;;;;;23.29;83.49;99068.88;4995309;28;1306;-60
2022/06/12 11:31:24;;;;;;;;;;;;;;;23.12;81.47;99063.94;5032680;28;897;-60
2022/06/12 11:33:58;;;;;;;;;;;;;;;22.96;81.81;99071.03;5032755;28;882;-60
2022/06/12 11:36:35;;;;;;;;;;;;;;;23.02;82.52;99063.41;5014807;28;1980;-61
2022/06/12 11:39:12;;;;;;;;;;;;;;;22.96;82.57;99065.41;5032948;28;894;-61
2022/06/12 11:41:45;;;;;;;;;;;;;;;23.02;82.25;99049.31;5032579;28;827;-60
2022/06/12 11:44:12;;;;;;;;;;;;;;;23.08;81.87;99054.19;5032440;28;858;-60
2022/06/12 11:46:49;;;;;;;;;;;;;;;23.07;82.29;99053.44;5032767;28;830;-60
2022/06/12 11:49:16;;;;;;;;;;;;;;;23.22;82.41;99054.00;5014735;28;835;-59
2022/06/12 11:51:53;;;;;;;;;;;;;;;23.39;82.44;99042.00;5032430;28;897;-59
2022/06/12 11:54:29;;;;;;;;;;;;;;;23.40;82.02;99038.63;5032317;28;815;-60
2022/06/12 11:57:10;;;;;;;;;;;;;;;23.36;81.16;99035.28;5032239;28;1951;-59
2022/06/12 12:00:00;;;;;;;;;;;;;;;23.44;80.04;99027.88;5032189;28;888;-61
2022/06/12 12:02:45;;;;;;;;;;;;;;;23.63;81.83;99024.59;5021819;28;1808;-59
2022/06/12 12:05:12;;;;;;;;;;;;;;;23.94;80.24;99023.59;5032092;28;937;-59
2022/06/12 12:07:59;;;;;;;;;;;;;;;24.23;81.07;99021.50;5032061;28;826;-60
2022/06/12 12:10:38;;;;;;;;;;;;;;;24.59;78.55;99011.16;5018070;28;1401;-61
2022/06/12 12:13:09;;;;;;;;;;;;;;;24.85;77.88;99016.44;5032371;28;858;-60
2022/06/12 12:15:44;;;;;;;;;;;;;;;24.84;76.26;99011.34;5031869;28;900;-61
2022/06/12 12:18:21;;;;;;;;;;;;;;;24.81;76.69;99009.53;5031843;28;1956;-60
2022/06/12 12:20:50;;;;;;;;;;;;;;;25.54;76.54;98994.22;5031904;28;854;-60
2022/06/12 12:23:28;;;;;;;;;;;;;;;26.02;73.86;98996.41;5031859;28;907;-61
2022/06/12 12:26:02;;;;;;;;;;;;;;;26.10;74.99;98982.44;5032094;28;771;-60
2022/06/12 12:28:43;;;;;;;;;;;;;;;26.96;68.97;98975.25;5031774;28;978;-60
2022/06/12 12:31:12;;;;;;;;;;;;;;;26.95;66.90;98970.91;5032235;28;865;-59
2022/06/12 12:33:40;;;;;;;;;;;;;;;27.89;65.20;98972.06;5031961;28;889;-61
2022/06/12 12:41:56;;;;;;;;;;;;;;;28.38;59.70;98948.94;5031769;28;1262;-63
2022/06/12 12:44:34;;;;;;;;;;;;;;;28.44;61.55;98952.44;5013780;28;1221;-62
2022/06/12 12:47:01;;;;;;;;;;;;;;;28.58;60.01;98947.53;5031585;28;893;-64
2022/06/12 12:49:30;;;;;;;;;;;;;;;27.01;62.70;98953.78;5031450;28;929;-62
2022/06/12 12:52:17;;;;;;;;;;;;;;;26.79;65.73;98957.72;5031579;28;905;-63
2022/06/12 12:54:47;;;;;;;;;;;;;;;25.92;67.43;98949.91;5037665;28;873;-60
2022/06/12 12:57:16;;;;;;;;;;;;;;;25.63;68.90;98949.41;5037711;28;1918;-61
2022/06/12 12:59:48;;;;;;;;;;;;;;;25.42;70.91;98956.78;5020223;28;1289;-61
2022/06/12 13:02:21;;;;;;;;;;;;;;;25.20;71.56;98960.50;5037913;28;874;-61
2022/06/12 13:04:48;;;;;;;;;;;;;;;25.61;72.13;98948.41;5038160;28;913;-60
2022/06/12 13:07:15;;;;;;;;;;;;;;;26.82;67.87;98948.91;5038130;28;814;-61
2022/06/12 13:09:51;;;;;;;;;;;;;;;27.65;64.20;98948.19;5038055;28;913;-62
2022/06/12 13:12:37;;;;;;;;;;;;;;;28.63;60.49;98952.31;5037950;28;885;-61
2022/06/12 13:15:03;;;;;;;;;;;;;;;29.17;59.00;98963.56;5037844;28;814;-62
2022/06/12 13:17:30;;;;;;;;;;;;;;;28.88;59.50;98961.34;5037773;28;1919;-61
2022/06/12 13:20:12;;;;;;;;;;;;;;;29.15;61.52;98961.31;5037847;28;877;-62
2022/06/12 13:22:57;;;;;;;;;;;;;;;29.59;58.74;98966.47;5037990;28;866;-63
2022/06/12 13:25:44;;;;;;;;;;;;;;;27.92;59.64;98958.84;5037677;28;831;-61
2022/06/12 13:28:38;;;;;;;;;;;;;;;28.42;58.11;98974.97;5037586;28;1180;-64
2022/06/12 13:31:05;;;;;;;;;;;;;;;29.23;56.43;98984.13;5034534;28;1645;-63
2022/06/12 13:33:35;;;;;;;;;;;;;;;28.82;57.38;98985.53;5037750;28;866;-62
2022/06/12 13:39:24;;;;;;;;;;;;;;;25.61;68.37;98988.00;5032292;28;933;-60
2022/06/12 13:42:11;;;;;;;;;;;;;;;24.90;71.85;98992.28;5037607;28;1051;-61
2022/06/12 13:44:38;;;;;;;;;;;;;;;24.58;73.42;98986.25;5037549;28;2150;-60
2022/06/12 13:47:20;;;;;;;;;;;;;;;24.46;72.91;98989.09;5037541;28;920;-61
2022/06/12 13:49:46;;;;;;;;;;;;;;;24.47;74.29;98987.03;5037581;28;794;-60
2022/06/12 13:52:16;;;;;;;;;;;;;;;25.37;71.75;98983.03;5037518;28;871;-60
2022/06/12 13:57:45;;;;;;;;;;;;;;;28.43;60.15;98985.00;5037437;28;1889;-62
2022/06/12 14:00:23;;;;;;;;;;;;;;;28.95;58.94;98988.34;5037581;28;823;-62
2022/06/12 14:02:50;;;;;;;;;;;;;;;29.19;57.09;98995.09;5037599;28;795;-60
2022/06/12 14:05:24;;;;;;;;;;;;;;;28.95;53.75;99001.81;5034397;28;1080;-61
2022/06/12 14:07:52;;;;;;;;;;;;;;;28.75;56.49;99006.88;5034665;28;818;-61
2022/06/12 14:10:36;;;;;;;;;;;;;;;27.97;57.54;99009.09;5034239;28;911;-60
2022/06/12 14:13:07;;;;;;;;;;;;;;;26.97;59.46;99019.34;5034386;28;890;-62
2022/06/12 14:15:36;;;;;;;;;;;;;;;26.18;62.27;99022.25;5034232;28;806;-60
2022/06/12 14:18:03;;;;;;;;;;;;;;;25.68;64.61;99021.38;5034158;28;1949;-60
2022/06/12 14:20:31;;;;;;;;;;;;;;;25.35;65.90;99028.81;5034079;28;849;-60
2022/06/12 14:23:14;;;;;;;;;;;;;;;25.13;68.22;99035.31;5034078;28;904;-61